X  Zatvori METAR podaci zračne luke     KDNN Dalton Municipal Airport
Temperatura
55°F Temperatura
54°F Točka rosišta
94% Vlaga



Vjetar
3 MPS
5 KM/S
1 M/S
3 Čvorovi



160°
JJI
Trenutna situacija

Magla Magla
Tlak zraka 1021.72 (hPa) - 30.17 (inHg)
Vidljivost 6 (milje) - 9.7 (km)
Zračna luka
Kôd zračne luke KDNN

Lokacija: Dalton Municipal Airport
Udaljenost: 34 (mi)

Metar:
KDNN 311735Z AUTO 16003KT 6SM BR SCT009 OVC014 13/12 A3017 RMK AO2 CIG 015V019 T01280124

Vrijeme: 01-31-2023 12:35 EST